sensor_id;sensor_type;location;lat;lon;timestamp;P1;durP1;ratioP1;P2;durP2;ratioP2
60314;SDS011;46159;42.550;21.904;2024-02-16T00:04:45;110.57;;;69.82;;
60314;SDS011;46159;42.550;21.904;2024-02-16T00:10:30;103.78;;;58.50;;
60314;SDS011;46159;42.550;21.904;2024-02-16T00:16:21;97.50;;;58.33;;
60314;SDS011;46159;42.550;21.904;2024-02-16T00:30:55;109.63;;;63.50;;
60314;SDS011;46159;42.550;21.904;2024-02-16T00:36:30;99.45;;;59.55;;
60314;SDS011;46159;42.550;21.904;2024-02-16T00:42:02;101.38;;;60.63;;
60314;SDS011;46159;42.550;21.904;2024-02-16T00:47:32;104.53;;;62.20;;
60314;SDS011;46159;42.550;21.904;2024-02-16T00:53:09;106.38;;;59.22;;
60314;SDS011;46159;42.550;21.904;2024-02-16T01:01:42;98.43;;;56.88;;
60314;SDS011;46159;42.550;21.904;2024-02-16T01:04:08;105.93;;;59.22;;
60314;SDS011;46159;42.550;21.904;2024-02-16T01:06:38;80.05;;;50.58;;
60314;SDS011;46159;42.550;21.904;2024-02-16T01:09:23;72.97;;;46.15;;
60314;SDS011;46159;42.550;21.904;2024-02-16T01:11:50;73.25;;;46.17;;
60314;SDS011;46159;42.550;21.904;2024-02-16T01:14:17;76.43;;;45.20;;
60314;SDS011;46159;42.550;21.904;2024-02-16T01:22:41;95.68;;;52.60;;
60314;SDS011;46159;42.550;21.904;2024-02-16T01:25:09;108.00;;;61.38;;
60314;SDS011;46159;42.550;21.904;2024-02-16T01:27:38;101.00;;;57.30;;
60314;SDS011;46159;42.550;21.904;2024-02-16T01:30:09;124.18;;;74.03;;
60314;SDS011;46159;42.550;21.904;2024-02-16T01:32:35;126.53;;;71.53;;
60314;SDS011;46159;42.550;21.904;2024-02-16T01:35:01;106.55;;;63.05;;
60314;SDS011;46159;42.550;21.904;2024-02-16T01:37:27;118.07;;;66.68;;
60314;SDS011;46159;42.550;21.904;2024-02-16T01:39:53;109.93;;;63.78;;
60314;SDS011;46159;42.550;21.904;2024-02-16T01:42:21;100.72;;;60.63;;
60314;SDS011;46159;42.550;21.904;2024-02-16T01:44:48;107.57;;;60.58;;
60314;SDS011;46159;42.550;21.904;2024-02-16T01:47:15;101.60;;;59.25;;
60314;SDS011;46159;42.550;21.904;2024-02-16T01:49:45;96.72;;;57.28;;
60314;SDS011;46159;42.550;21.904;2024-02-16T01:52:12;101.22;;;59.33;;
60314;SDS011;46159;42.550;21.904;2024-02-16T01:54:38;100.82;;;58.70;;
60314;SDS011;46159;42.550;21.904;2024-02-16T01:57:05;94.72;;;55.58;;
60314;SDS011;46159;42.550;21.904;2024-02-16T01:59:35;92.18;;;54.58;;
60314;SDS011;46159;42.550;21.904;2024-02-16T02:02:02;87.68;;;56.72;;
60314;SDS011;46159;42.550;21.904;2024-02-16T02:04:31;82.28;;;50.78;;
60314;SDS011;46159;42.550;21.904;2024-02-16T02:06:58;75.20;;;46.40;;
60314;SDS011;46159;42.550;21.904;2024-02-16T02:09:27;64.38;;;41.92;;
60314;SDS011;46159;42.550;21.904;2024-02-16T02:11:53;68.20;;;42.25;;
60314;SDS011;46159;42.550;21.904;2024-02-16T02:14:22;66.05;;;42.60;;
60314;SDS011;46159;42.550;21.904;2024-02-16T02:16:51;74.57;;;43.33;;
60314;SDS011;46159;42.550;21.904;2024-02-16T02:19:20;70.93;;;43.38;;
60314;SDS011;46159;42.550;21.904;2024-02-16T02:21:46;64.22;;;40.70;;
60314;SDS011;46159;42.550;21.904;2024-02-16T02:24:15;66.70;;;43.22;;
60314;SDS011;46159;42.550;21.904;2024-02-16T02:26:44;64.53;;;42.83;;
60314;SDS011;46159;42.550;21.904;2024-02-16T02:29:11;66.30;;;42.45;;
60314;SDS011;46159;42.550;21.904;2024-02-16T02:31:40;63.97;;;40.40;;
60314;SDS011;46159;42.550;21.904;2024-02-16T02:34:06;68.88;;;43.78;;
60314;SDS011;46159;42.550;21.904;2024-02-16T02:36:32;69.43;;;43.42;;
60314;SDS011;46159;42.550;21.904;2024-02-16T02:38:58;67.80;;;43.08;;
60314;SDS011;46159;42.550;21.904;2024-02-16T02:41:27;68.00;;;42.33;;
60314;SDS011;46159;42.550;21.904;2024-02-16T02:43:53;82.07;;;49.20;;
60314;SDS011;46159;42.550;21.904;2024-02-16T02:46:22;73.18;;;44.80;;
60314;SDS011;46159;42.550;21.904;2024-02-16T02:48:53;89.05;;;51.85;;
60314;SDS011;46159;42.550;21.904;2024-02-16T02:51:23;106.35;;;61.83;;
60314;SDS011;46159;42.550;21.904;2024-02-16T02:53:49;96.53;;;58.30;;
60314;SDS011;46159;42.550;21.904;2024-02-16T02:56:16;93.30;;;54.50;;
60314;SDS011;46159;42.550;21.904;2024-02-16T02:58:43;101.65;;;59.75;;
60314;SDS011;46159;42.550;21.904;2024-02-16T03:01:10;108.32;;;60.90;;
60314;SDS011;46159;42.550;21.904;2024-02-16T03:03:42;94.43;;;55.92;;
60314;SDS011;46159;42.550;21.904;2024-02-16T03:06:09;96.57;;;57.70;;
60314;SDS011;46159;42.550;21.904;2024-02-16T03:08:36;92.85;;;54.80;;
60314;SDS011;46159;42.550;21.904;2024-02-16T03:11:03;91.65;;;54.45;;
60314;SDS011;46159;42.550;21.904;2024-02-16T03:13:29;95.82;;;55.28;;
60314;SDS011;46159;42.550;21.904;2024-02-16T03:16:00;94.88;;;55.28;;
60314;SDS011;46159;42.550;21.904;2024-02-16T03:18:29;92.05;;;54.20;;
60314;SDS011;46159;42.550;21.904;2024-02-16T03:20:55;90.40;;;55.80;;
60314;SDS011;46159;42.550;21.904;2024-02-16T03:23:24;105.10;;;59.75;;
60314;SDS011;46159;42.550;21.904;2024-02-16T03:25:50;100.28;;;59.65;;
60314;SDS011;46159;42.550;21.904;2024-02-16T03:28:19;99.85;;;60.33;;
60314;SDS011;46159;42.550;21.904;2024-02-16T03:30:46;93.40;;;56.70;;
60314;SDS011;46159;42.550;21.904;2024-02-16T03:33:14;96.07;;;57.60;;
60314;SDS011;46159;42.550;21.904;2024-02-16T03:35:41;100.70;;;58.42;;
60314;SDS011;46159;42.550;21.904;2024-02-16T03:38:07;99.05;;;59.08;;
60314;SDS011;46159;42.550;21.904;2024-02-16T03:40:36;107.18;;;60.25;;
60314;SDS011;46159;42.550;21.904;2024-02-16T03:43:03;110.75;;;63.47;;
60314;SDS011;46159;42.550;21.904;2024-02-16T03:45:35;107.65;;;63.05;;
60314;SDS011;46159;42.550;21.904;2024-02-16T03:48:02;97.55;;;59.05;;
60314;SDS011;46159;42.550;21.904;2024-02-16T03:50:29;101.20;;;59.88;;
60314;SDS011;46159;42.550;21.904;2024-02-16T03:52:56;98.32;;;57.78;;
60314;SDS011;46159;42.550;21.904;2024-02-16T03:55:23;94.78;;;55.72;;
60314;SDS011;46159;42.550;21.904;2024-02-16T03:57:49;92.07;;;55.92;;
60314;SDS011;46159;42.550;21.904;2024-02-16T04:00:16;108.20;;;66.03;;
60314;SDS011;46159;42.550;21.904;2024-02-16T04:02:45;183.07;;;96.20;;
60314;SDS011;46159;42.550;21.904;2024-02-16T04:05:12;157.07;;;86.57;;
60314;SDS011;46159;42.550;21.904;2024-02-16T04:07:41;151.35;;;83.30;;
60314;SDS011;46159;42.550;21.904;2024-02-16T04:10:07;155.27;;;85.72;;
60314;SDS011;46159;42.550;21.904;2024-02-16T04:12:36;148.25;;;82.45;;
60314;SDS011;46159;42.550;21.904;2024-02-16T04:15:04;137.27;;;81.93;;
60314;SDS011;46159;42.550;21.904;2024-02-16T04:17:31;151.35;;;88.50;;
60314;SDS011;46159;42.550;21.904;2024-02-16T04:19:57;167.30;;;97.07;;
60314;SDS011;46159;42.550;21.904;2024-02-16T04:22:27;153.05;;;87.70;;
60314;SDS011;46159;42.550;21.904;2024-02-16T04:24:53;127.22;;;79.45;;
60314;SDS011;46159;42.550;21.904;2024-02-16T04:27:22;124.30;;;71.32;;
60314;SDS011;46159;42.550;21.904;2024-02-16T04:29:49;117.20;;;74.20;;
60314;SDS011;46159;42.550;21.904;2024-02-16T04:32:15;91.22;;;58.55;;
60314;SDS011;46159;42.550;21.904;2024-02-16T04:34:43;100.10;;;60.58;;
60314;SDS011;46159;42.550;21.904;2024-02-16T04:37:10;102.03;;;59.55;;
60314;SDS011;46159;42.550;21.904;2024-02-16T04:39:39;108.00;;;65.03;;
60314;SDS011;46159;42.550;21.904;2024-02-16T04:42:05;99.30;;;60.40;;
60314;SDS011;46159;42.550;21.904;2024-02-16T04:44:32;110.30;;;64.32;;
60314;SDS011;46159;42.550;21.904;2024-02-16T04:46:58;106.20;;;62.03;;
60314;SDS011;46159;42.550;21.904;2024-02-16T04:49:24;122.65;;;66.95;;
60314;SDS011;46159;42.550;21.904;2024-02-16T04:51:51;145.75;;;81.32;;
60314;SDS011;46159;42.550;21.904;2024-02-16T04:54:18;113.57;;;63.55;;
60314;SDS011;46159;42.550;21.904;2024-02-16T04:56:45;114.80;;;65.20;;
60314;SDS011;46159;42.550;21.904;2024-02-16T04:59:11;114.15;;;66.40;;
60314;SDS011;46159;42.550;21.904;2024-02-16T05:01:37;111.53;;;65.75;;
60314;SDS011;46159;42.550;21.904;2024-02-16T05:04:04;106.32;;;63.38;;
60314;SDS011;46159;42.550;21.904;2024-02-16T05:06:31;115.25;;;70.47;;
60314;SDS011;46159;42.550;21.904;2024-02-16T05:08:57;130.95;;;82.32;;
60314;SDS011;46159;42.550;21.904;2024-02-16T05:11:24;114.60;;;68.90;;
60314;SDS011;46159;42.550;21.904;2024-02-16T05:13:50;108.47;;;64.18;;
60314;SDS011;46159;42.550;21.904;2024-02-16T05:16:16;95.47;;;59.22;;
60314;SDS011;46159;42.550;21.904;2024-02-16T05:18:42;103.10;;;59.53;;
60314;SDS011;46159;42.550;21.904;2024-02-16T05:21:09;127.60;;;73.30;;
60314;SDS011;46159;42.550;21.904;2024-02-16T05:23:37;135.23;;;79.63;;
60314;SDS011;46159;42.550;21.904;2024-02-16T05:26:03;131.20;;;81.45;;
60314;SDS011;46159;42.550;21.904;2024-02-16T05:28:29;131.30;;;79.40;;
60314;SDS011;46159;42.550;21.904;2024-02-16T05:30:55;109.47;;;65.15;;
60314;SDS011;46159;42.550;21.904;2024-02-16T05:33:21;101.70;;;60.22;;
60314;SDS011;46159;42.550;21.904;2024-02-16T05:35:49;101.45;;;59.72;;
60314;SDS011;46159;42.550;21.904;2024-02-16T05:38:21;102.18;;;60.33;;
60314;SDS011;46159;42.550;21.904;2024-02-16T05:40:57;106.40;;;60.10;;
60314;SDS011;46159;42.550;21.904;2024-02-16T05:43:25;106.28;;;61.22;;
60314;SDS011;46159;42.550;21.904;2024-02-16T05:45:51;92.95;;;55.58;;
60314;SDS011;46159;42.550;21.904;2024-02-16T05:48:18;158.75;;;87.72;;
60314;SDS011;46159;42.550;21.904;2024-02-16T05:50:45;237.57;;;127.38;;
60314;SDS011;46159;42.550;21.904;2024-02-16T05:53:11;92.35;;;56.55;;
60314;SDS011;46159;42.550;21.904;2024-02-16T05:55:40;60.63;;;38.13;;
60314;SDS011;46159;42.550;21.904;2024-02-16T05:58:10;57.72;;;37.50;;
60314;SDS011;46159;42.550;21.904;2024-02-16T06:00:38;57.47;;;36.95;;
60314;SDS011;46159;42.550;21.904;2024-02-16T06:03:05;57.13;;;36.63;;
60314;SDS011;46159;42.550;21.904;2024-02-16T06:05:33;53.22;;;35.30;;
60314;SDS011;46159;42.550;21.904;2024-02-16T06:08:00;61.60;;;39.67;;
60314;SDS011;46159;42.550;21.904;2024-02-16T06:10:26;77.50;;;50.80;;
60314;SDS011;46159;42.550;21.904;2024-02-16T06:12:52;111.85;;;71.10;;
60314;SDS011;46159;42.550;21.904;2024-02-16T06:15:19;96.00;;;63.15;;
60314;SDS011;46159;42.550;21.904;2024-02-16T06:17:47;98.60;;;63.88;;
60314;SDS011;46159;42.550;21.904;2024-02-16T06:20:13;103.70;;;67.07;;
60314;SDS011;46159;42.550;21.904;2024-02-16T06:22:40;118.97;;;74.25;;
60314;SDS011;46159;42.550;21.904;2024-02-16T06:25:07;106.78;;;69.45;;
60314;SDS011;46159;42.550;21.904;2024-02-16T06:27:35;103.55;;;68.78;;
60314;SDS011;46159;42.550;21.904;2024-02-16T06:30:03;107.80;;;75.15;;
60314;SDS011;46159;42.550;21.904;2024-02-16T06:32:30;99.72;;;69.47;;
60314;SDS011;46159;42.550;21.904;2024-02-16T06:34:57;100.85;;;75.28;;
60314;SDS011;46159;42.550;21.904;2024-02-16T06:37:23;107.40;;;76.82;;
60314;SDS011;46159;42.550;21.904;2024-02-16T06:39:49;101.65;;;70.82;;
60314;SDS011;46159;42.550;21.904;2024-02-16T06:42:17;102.72;;;76.10;;
60314;SDS011;46159;42.550;21.904;2024-02-16T06:44:44;116.50;;;81.05;;
60314;SDS011;46159;42.550;21.904;2024-02-16T06:47:10;114.97;;;80.60;;
60314;SDS011;46159;42.550;21.904;2024-02-16T06:49:38;131.20;;;89.53;;
60314;SDS011;46159;42.550;21.904;2024-02-16T06:52:11;115.03;;;84.22;;
60314;SDS011;46159;42.550;21.904;2024-02-16T06:54:37;111.97;;;77.90;;
60314;SDS011;46159;42.550;21.904;2024-02-16T06:57:06;112.80;;;80.65;;
60314;SDS011;46159;42.550;21.904;2024-02-16T06:59:32;90.93;;;66.60;;
60314;SDS011;46159;42.550;21.904;2024-02-16T07:01:59;81.20;;;61.88;;
60314;SDS011;46159;42.550;21.904;2024-02-16T07:04:25;77.70;;;53.95;;
60314;SDS011;46159;42.550;21.904;2024-02-16T07:06:54;54.42;;;40.17;;
60314;SDS011;46159;42.550;21.904;2024-02-16T07:09:20;43.95;;;33.40;;
60314;SDS011;46159;42.550;21.904;2024-02-16T07:11:47;47.88;;;36.08;;
60314;SDS011;46159;42.550;21.904;2024-02-16T07:14:16;50.03;;;38.42;;
60314;SDS011;46159;42.550;21.904;2024-02-16T07:16:43;56.92;;;43.47;;
60314;SDS011;46159;42.550;21.904;2024-02-16T07:19:09;55.65;;;41.47;;
60314;SDS011;46159;42.550;21.904;2024-02-16T07:21:35;60.90;;;44.35;;
60314;SDS011;46159;42.550;21.904;2024-02-16T07:24:01;60.97;;;46.20;;
60314;SDS011;46159;42.550;21.904;2024-02-16T07:26:28;73.78;;;50.28;;
60314;SDS011;46159;42.550;21.904;2024-02-16T07:28:58;61.42;;;46.83;;
60314;SDS011;46159;42.550;21.904;2024-02-16T07:31:25;76.68;;;53.42;;
60314;SDS011;46159;42.550;21.904;2024-02-16T07:33:51;70.35;;;54.03;;
60314;SDS011;46159;42.550;21.904;2024-02-16T07:36:18;79.05;;;55.70;;
60314;SDS011;46159;42.550;21.904;2024-02-16T07:38:49;73.50;;;56.75;;
60314;SDS011;46159;42.550;21.904;2024-02-16T07:41:28;72.45;;;53.67;;
60314;SDS011;46159;42.550;21.904;2024-02-16T07:43:54;71.68;;;52.95;;
60314;SDS011;46159;42.550;21.904;2024-02-16T07:46:20;64.22;;;46.53;;
60314;SDS011;46159;42.550;21.904;2024-02-16T07:48:48;59.20;;;44.70;;
60314;SDS011;46159;42.550;21.904;2024-02-16T07:51:14;51.78;;;37.13;;
60314;SDS011;46159;42.550;21.904;2024-02-16T07:53:41;48.75;;;35.80;;
60314;SDS011;46159;42.550;21.904;2024-02-16T07:56:11;48.28;;;35.00;;
60314;SDS011;46159;42.550;21.904;2024-02-16T07:58:37;40.88;;;31.35;;
60314;SDS011;46159;42.550;21.904;2024-02-16T08:01:03;43.05;;;29.15;;
60314;SDS011;46159;42.550;21.904;2024-02-16T08:03:29;38.03;;;28.23;;
60314;SDS011;46159;42.550;21.904;2024-02-16T08:05:55;35.38;;;26.25;;
60314;SDS011;46159;42.550;21.904;2024-02-16T08:08:22;31.08;;;23.27;;
60314;SDS011;46159;42.550;21.904;2024-02-16T08:10:48;29.05;;;21.55;;
60314;SDS011;46159;42.550;21.904;2024-02-16T08:13:20;33.10;;;22.40;;
60314;SDS011;46159;42.550;21.904;2024-02-16T08:15:46;38.08;;;26.60;;
60314;SDS011;46159;42.550;21.904;2024-02-16T08:18:12;38.17;;;27.55;;
60314;SDS011;46159;42.550;21.904;2024-02-16T08:20:38;43.45;;;30.45;;
60314;SDS011;46159;42.550;21.904;2024-02-16T08:23:04;36.15;;;25.15;;
60314;SDS011;46159;42.550;21.904;2024-02-16T08:25:30;42.47;;;31.02;;
60314;SDS011;46159;42.550;21.904;2024-02-16T08:27:58;52.83;;;36.22;;
60314;SDS011;46159;42.550;21.904;2024-02-16T08:30:25;42.17;;;32.20;;
60314;SDS011;46159;42.550;21.904;2024-02-16T08:32:52;57.63;;;41.15;;
60314;SDS011;46159;42.550;21.904;2024-02-16T08:35:26;49.85;;;34.40;;
60314;SDS011;46159;42.550;21.904;2024-02-16T08:37:56;43.67;;;32.75;;
60314;SDS011;46159;42.550;21.904;2024-02-16T08:40:28;49.67;;;35.70;;
60314;SDS011;46159;42.550;21.904;2024-02-16T08:42:57;42.83;;;31.17;;
60314;SDS011;46159;42.550;21.904;2024-02-16T08:45:30;53.78;;;39.60;;
60314;SDS011;46159;42.550;21.904;2024-02-16T08:48:03;43.65;;;32.88;;
60314;SDS011;46159;42.550;21.904;2024-02-16T08:50:34;36.22;;;26.50;;
60314;SDS011;46159;42.550;21.904;2024-02-16T08:53:04;37.60;;;28.67;;
60314;SDS011;46159;42.550;21.904;2024-02-16T08:55:34;38.00;;;26.77;;
60314;SDS011;46159;42.550;21.904;2024-02-16T08:58:01;31.05;;;22.98;;
60314;SDS011;46159;42.550;21.904;2024-02-16T09:00:32;35.40;;;23.77;;
60314;SDS011;46159;42.550;21.904;2024-02-16T09:03:02;30.02;;;21.30;;
60314;SDS011;46159;42.550;21.904;2024-02-16T09:05:34;24.02;;;17.90;;
60314;SDS011;46159;42.550;21.904;2024-02-16T09:08:06;24.70;;;15.73;;
60314;SDS011;46159;42.550;21.904;2024-02-16T09:10:39;26.45;;;15.93;;
60314;SDS011;46159;42.550;21.904;2024-02-16T09:13:09;22.23;;;14.68;;
60314;SDS011;46159;42.550;21.904;2024-02-16T09:15:37;25.73;;;16.83;;
60314;SDS011;46159;42.550;21.904;2024-02-16T09:18:03;27.75;;;17.48;;
60314;SDS011;46159;42.550;21.904;2024-02-16T09:20:32;24.33;;;16.77;;
60314;SDS011;46159;42.550;21.904;2024-02-16T09:23:03;29.65;;;15.00;;
60314;SDS011;46159;42.550;21.904;2024-02-16T09:25:32;24.42;;;15.45;;
60314;SDS011;46159;42.550;21.904;2024-02-16T09:28:03;25.30;;;16.63;;
60314;SDS011;46159;42.550;21.904;2024-02-16T09:30:30;26.70;;;16.05;;
60314;SDS011;46159;42.550;21.904;2024-02-16T09:32:58;23.98;;;15.43;;
60314;SDS011;46159;42.550;21.904;2024-02-16T09:35:26;23.38;;;16.52;;
60314;SDS011;46159;42.550;21.904;2024-02-16T09:37:53;21.63;;;14.07;;
60314;SDS011;46159;42.550;21.904;2024-02-16T09:40:21;30.65;;;16.95;;
60314;SDS011;46159;42.550;21.904;2024-02-16T09:42:48;20.05;;;14.13;;
60314;SDS011;46159;42.550;21.904;2024-02-16T09:45:16;19.17;;;11.85;;
60314;SDS011;46159;42.550;21.904;2024-02-16T09:47:48;32.55;;;24.90;;
60314;SDS011;46159;42.550;21.904;2024-02-16T09:50:16;22.90;;;14.88;;
60314;SDS011;46159;42.550;21.904;2024-02-16T09:52:50;26.52;;;17.23;;
60314;SDS011;46159;42.550;21.904;2024-02-16T09:55:18;24.40;;;16.63;;
60314;SDS011;46159;42.550;21.904;2024-02-16T09:57:58;26.30;;;18.55;;
60314;SDS011;46159;42.550;21.904;2024-02-16T10:00:26;28.48;;;19.23;;
60314;SDS011;46159;42.550;21.904;2024-02-16T10:02:58;26.10;;;17.95;;
60314;SDS011;46159;42.550;21.904;2024-02-16T10:05:28;23.38;;;15.80;;
60314;SDS011;46159;42.550;21.904;2024-02-16T10:07:58;28.85;;;18.40;;
60314;SDS011;46159;42.550;21.904;2024-02-16T10:10:30;27.45;;;18.77;;
60314;SDS011;46159;42.550;21.904;2024-02-16T10:13:04;26.23;;;18.42;;
60314;SDS011;46159;42.550;21.904;2024-02-16T10:15:33;26.00;;;19.27;;
60314;SDS011;46159;42.550;21.904;2024-02-16T10:18:06;32.70;;;22.42;;
60314;SDS011;46159;42.550;21.904;2024-02-16T10:20:35;33.10;;;23.90;;
60314;SDS011;46159;42.550;21.904;2024-02-16T10:23:08;27.35;;;20.20;;
60314;SDS011;46159;42.550;21.904;2024-02-16T10:25:41;32.43;;;23.80;;
60314;SDS011;46159;42.550;21.904;2024-02-16T10:28:16;37.38;;;25.88;;
60314;SDS011;46159;42.550;21.904;2024-02-16T10:30:48;33.22;;;24.75;;
60314;SDS011;46159;42.550;21.904;2024-02-16T10:33:20;39.75;;;23.85;;
60314;SDS011;46159;42.550;21.904;2024-02-16T10:35:49;41.00;;;29.58;;
60314;SDS011;46159;42.550;21.904;2024-02-16T10:38:22;37.88;;;27.48;;
60314;SDS011;46159;42.550;21.904;2024-02-16T10:40:50;33.42;;;26.77;;
60314;SDS011;46159;42.550;21.904;2024-02-16T10:43:20;35.38;;;25.25;;
60314;SDS011;46159;42.550;21.904;2024-02-16T10:45:47;35.60;;;27.95;;
60314;SDS011;46159;42.550;21.904;2024-02-16T10:48:19;37.45;;;26.55;;
60314;SDS011;46159;42.550;21.904;2024-02-16T10:50:48;40.97;;;27.50;;
60314;SDS011;46159;42.550;21.904;2024-02-16T10:53:27;42.38;;;29.38;;
60314;SDS011;46159;42.550;21.904;2024-02-16T10:55:59;41.55;;;28.10;;
60314;SDS011;46159;42.550;21.904;2024-02-16T10:58:29;35.13;;;23.48;;
60314;SDS011;46159;42.550;21.904;2024-02-16T11:00:56;38.72;;;27.30;;
60314;SDS011;46159;42.550;21.904;2024-02-16T11:03:26;50.92;;;32.30;;
60314;SDS011;46159;42.550;21.904;2024-02-16T11:05:54;29.42;;;21.88;;
60314;SDS011;46159;42.550;21.904;2024-02-16T11:08:28;30.30;;;21.20;;
60314;SDS011;46159;42.550;21.904;2024-02-16T11:10:59;33.75;;;23.00;;
60314;SDS011;46159;42.550;21.904;2024-02-16T11:13:28;31.92;;;23.65;;
60314;SDS011;46159;42.550;21.904;2024-02-16T11:18:30;32.28;;;22.77;;
60314;SDS011;46159;42.550;21.904;2024-02-16T11:21:03;32.08;;;23.42;;
60314;SDS011;46159;42.550;21.904;2024-02-16T11:23:34;33.08;;;23.67;;
60314;SDS011;46159;42.550;21.904;2024-02-16T11:26:13;31.77;;;22.83;;
60314;SDS011;46159;42.550;21.904;2024-02-16T11:28:41;31.30;;;21.30;;
60314;SDS011;46159;42.550;21.904;2024-02-16T11:31:13;25.80;;;18.77;;
60314;SDS011;46159;42.550;21.904;2024-02-16T11:33:45;29.63;;;20.25;;
60314;SDS011;46159;42.550;21.904;2024-02-16T11:38:55;29.25;;;21.30;;
60314;SDS011;46159;42.550;21.904;2024-02-16T11:41:21;31.65;;;20.45;;
60314;SDS011;46159;42.550;21.904;2024-02-16T11:43:58;30.08;;;20.75;;
60314;SDS011;46159;42.550;21.904;2024-02-16T11:46:28;29.20;;;21.30;;
60314;SDS011;46159;42.550;21.904;2024-02-16T11:49:10;31.33;;;21.25;;
60314;SDS011;46159;42.550;21.904;2024-02-16T11:51:38;29.25;;;21.65;;
60314;SDS011;46159;42.550;21.904;2024-02-16T11:54:05;30.65;;;22.73;;
60314;SDS011;46159;42.550;21.904;2024-02-16T11:56:35;28.73;;;19.25;;
60314;SDS011;46159;42.550;21.904;2024-02-16T11:59:05;33.42;;;25.25;;
60314;SDS011;46159;42.550;21.904;2024-02-16T12:01:33;25.48;;;18.67;;
60314;SDS011;46159;42.550;21.904;2024-02-16T12:04:02;29.52;;;22.25;;
60314;SDS011;46159;42.550;21.904;2024-02-16T12:06:35;33.40;;;19.67;;
60314;SDS011;46159;42.550;21.904;2024-02-16T12:09:11;28.63;;;19.17;;
60314;SDS011;46159;42.550;21.904;2024-02-16T12:11:48;29.27;;;18.48;;
60314;SDS011;46159;42.550;21.904;2024-02-16T12:14:19;25.70;;;18.88;;
60314;SDS011;46159;42.550;21.904;2024-02-16T12:22:59;29.35;;;17.83;;
60314;SDS011;46159;42.550;21.904;2024-02-16T12:25:29;26.63;;;18.58;;
60314;SDS011;46159;42.550;21.904;2024-02-16T12:27:58;32.22;;;21.65;;
60314;SDS011;46159;42.550;21.904;2024-02-16T12:30:32;26.10;;;18.05;;
60314;SDS011;46159;42.550;21.904;2024-02-16T12:33:02;28.80;;;19.30;;
60314;SDS011;46159;42.550;21.904;2024-02-16T12:35:28;21.98;;;13.73;;
60314;SDS011;46159;42.550;21.904;2024-02-16T12:37:55;19.17;;;13.88;;
60314;SDS011;46159;42.550;21.904;2024-02-16T12:40:25;20.60;;;14.68;;
60314;SDS011;46159;42.550;21.904;2024-02-16T12:42:52;20.17;;;12.90;;
60314;SDS011;46159;42.550;21.904;2024-02-16T12:45:25;21.27;;;14.57;;
60314;SDS011;46159;42.550;21.904;2024-02-16T12:47:51;23.35;;;12.43;;
60314;SDS011;46159;42.550;21.904;2024-02-16T12:50:18;24.60;;;16.85;;
60314;SDS011;46159;42.550;21.904;2024-02-16T12:52:45;22.35;;;16.45;;
60314;SDS011;46159;42.550;21.904;2024-02-16T12:55:11;22.50;;;14.80;;
60314;SDS011;46159;42.550;21.904;2024-02-16T12:57:37;23.65;;;14.15;;
60314;SDS011;46159;42.550;21.904;2024-02-16T13:00:12;22.83;;;15.18;;
60314;SDS011;46159;42.550;21.904;2024-02-16T13:02:39;21.58;;;14.27;;
60314;SDS011;46159;42.550;21.904;2024-02-16T13:05:11;19.80;;;13.90;;
60314;SDS011;46159;42.550;21.904;2024-02-16T13:07:37;21.88;;;14.57;;
60314;SDS011;46159;42.550;21.904;2024-02-16T13:10:05;24.35;;;12.77;;
60314;SDS011;46159;42.550;21.904;2024-02-16T13:12:32;18.08;;;12.73;;
60314;SDS011;46159;42.550;21.904;2024-02-16T13:15:02;19.45;;;12.60;;
60314;SDS011;46159;42.550;21.904;2024-02-16T13:17:28;20.70;;;13.70;;
60314;SDS011;46159;42.550;21.904;2024-02-16T13:20:08;22.70;;;12.55;;
60314;SDS011;46159;42.550;21.904;2024-02-16T13:22:38;20.40;;;12.57;;
60314;SDS011;46159;42.550;21.904;2024-02-16T13:25:04;18.60;;;13.18;;
60314;SDS011;46159;42.550;21.904;2024-02-16T13:27:32;23.05;;;13.18;;
60314;SDS011;46159;42.550;21.904;2024-02-16T13:29:59;24.40;;;14.20;;
60314;SDS011;46159;42.550;21.904;2024-02-16T13:32:26;24.25;;;14.23;;
60314;SDS011;46159;42.550;21.904;2024-02-16T13:34:53;26.23;;;16.95;;
60314;SDS011;46159;42.550;21.904;2024-02-16T13:40:25;19.10;;;11.93;;
60314;SDS011;46159;42.550;21.904;2024-02-16T13:43:03;17.27;;;12.18;;
60314;SDS011;46159;42.550;21.904;2024-02-16T13:45:32;20.98;;;15.00;;
60314;SDS011;46159;42.550;21.904;2024-02-16T13:48:12;20.55;;;13.48;;
60314;SDS011;46159;42.550;21.904;2024-02-16T13:50:39;19.90;;;14.18;;
60314;SDS011;46159;42.550;21.904;2024-02-16T13:53:05;18.73;;;13.70;;
60314;SDS011;46159;42.550;21.904;2024-02-16T13:55:31;21.02;;;14.77;;
60314;SDS011;46159;42.550;21.904;2024-02-16T13:58:05;19.17;;;13.30;;
60314;SDS011;46159;42.550;21.904;2024-02-16T14:00:32;19.25;;;13.27;;
60314;SDS011;46159;42.550;21.904;2024-02-16T14:02:58;21.85;;;13.70;;
60314;SDS011;46159;42.550;21.904;2024-02-16T14:05:24;22.92;;;13.15;;
60314;SDS011;46159;42.550;21.904;2024-02-16T14:07:56;18.33;;;12.30;;
60314;SDS011;46159;42.550;21.904;2024-02-16T14:10:22;25.50;;;13.48;;
60314;SDS011;46159;42.550;21.904;2024-02-16T14:12:48;17.58;;;12.80;;
60314;SDS011;46159;42.550;21.904;2024-02-16T14:15:15;18.65;;;12.70;;
60314;SDS011;46159;42.550;21.904;2024-02-16T14:17:42;19.85;;;12.90;;
60314;SDS011;46159;42.550;21.904;2024-02-16T14:20:08;26.63;;;14.15;;
60314;SDS011;46159;42.550;21.904;2024-02-16T14:22:35;23.23;;;15.63;;
60314;SDS011;46159;42.550;21.904;2024-02-16T14:25:01;24.63;;;16.30;;
60314;SDS011;46159;42.550;21.904;2024-02-16T14:27:29;36.42;;;19.10;;
60314;SDS011;46159;42.550;21.904;2024-02-16T14:29:57;27.40;;;15.55;;
60314;SDS011;46159;42.550;21.904;2024-02-16T14:32:23;27.13;;;17.13;;
60314;SDS011;46159;42.550;21.904;2024-02-16T14:34:49;26.13;;;18.05;;
60314;SDS011;46159;42.550;21.904;2024-02-16T14:37:16;25.48;;;18.92;;
60314;SDS011;46159;42.550;21.904;2024-02-16T14:39:47;27.60;;;18.95;;
60314;SDS011;46159;42.550;21.904;2024-02-16T14:42:14;29.95;;;18.08;;
60314;SDS011;46159;42.550;21.904;2024-02-16T14:44:40;28.30;;;19.30;;
60314;SDS011;46159;42.550;21.904;2024-02-16T14:47:06;32.22;;;19.90;;
60314;SDS011;46159;42.550;21.904;2024-02-16T14:55:49;17.17;;;10.48;;
60314;SDS011;46159;42.550;21.904;2024-02-16T14:58:16;29.92;;;12.55;;
60314;SDS011;46159;42.550;21.904;2024-02-16T15:00:42;20.83;;;10.80;;
60314;SDS011;46159;42.550;21.904;2024-02-16T15:03:10;19.48;;;10.10;;
60314;SDS011;46159;42.550;21.904;2024-02-16T15:05:36;18.40;;;9.57;;
60314;SDS011;46159;42.550;21.904;2024-02-16T15:08:03;20.60;;;12.75;;
60314;SDS011;46159;42.550;21.904;2024-02-16T15:10:31;17.23;;;10.85;;
60314;SDS011;46159;42.550;21.904;2024-02-16T15:12:58;34.85;;;12.40;;
60314;SDS011;46159;42.550;21.904;2024-02-16T15:15:27;14.60;;;9.43;;
60314;SDS011;46159;42.550;21.904;2024-02-16T15:17:55;24.77;;;11.35;;
60314;SDS011;46159;42.550;21.904;2024-02-16T15:20:26;21.05;;;11.88;;